createdAt,value
2019-05-21T00:00:51.325Z,80.3
2019-05-21T00:01:51.317Z,80.3
2019-05-21T00:02:51.310Z,80.11
2019-05-21T00:03:51.303Z,80.21
2019-05-21T00:04:51.297Z,80.11
2019-05-21T00:05:51.290Z,80.4
2019-05-21T00:06:51.049Z,80.3
2019-05-21T00:07:51.278Z,80.11
2019-05-21T00:08:51.265Z,79.73
2019-05-21T00:09:51.260Z,79.93
2019-05-21T00:10:51.257Z,80.11
2019-05-21T00:11:51.244Z,79.64
2019-05-21T00:12:51.238Z,79.54
2019-05-21T00:13:51.469Z,79.73
2019-05-21T00:14:51.243Z,79.64
2019-05-21T00:15:51.216Z,79.25
2019-05-21T00:16:51.408Z,78.97
2019-05-21T00:17:51.227Z,79.16
2019-05-21T00:18:51.233Z,78.87
2019-05-21T00:19:51.187Z,79.06
2019-05-21T00:20:51.185Z,79.25
2019-05-21T00:21:51.174Z,79.25
2019-05-21T00:22:51.169Z,78.97
2019-05-21T00:23:51.164Z,79.16
2019-05-21T00:24:51.364Z,79.25
2019-05-21T00:25:51.145Z,79.64
2019-05-21T00:26:51.139Z,79.06
2019-05-21T00:27:51.132Z,79.35
2019-05-21T00:28:51.129Z,79.73
2019-05-21T00:29:51.116Z,79.73
2019-05-21T00:31:51.102Z,79.69
2019-05-21T00:32:51.096Z,79.83
2019-05-21T00:33:51.088Z,79.73
2019-05-21T00:34:51.109Z,79.64
2019-05-21T00:35:51.073Z,79.6
2019-05-21T00:36:51.086Z,79.5
2019-05-21T00:37:51.057Z,80.07
2019-05-21T00:38:54.430Z,80.07
2019-05-21T00:39:50.809Z,79.5
2019-05-21T00:40:51.042Z,79.41
2019-05-21T00:41:51.039Z,79.41
2019-05-21T00:42:51.023Z,79.22
2019-05-21T00:43:51.016Z,79.02
2019-05-21T00:44:51.059Z,78.83
2019-05-21T00:45:50.999Z,79.12
2019-05-21T00:46:50.996Z,79.22
2019-05-21T00:47:50.982Z,79.79
2019-05-21T00:49:03.710Z,79.69
2019-05-21T00:49:50.992Z,79.79
2019-05-21T00:50:50.968Z,79.5
2019-05-21T00:51:50.957Z,79.5
2019-05-21T00:52:50.949Z,79.79
2019-05-21T00:53:50.701Z,79.12
2019-05-21T00:54:50.934Z,79.22
2019-05-21T00:55:52.248Z,79.12
2019-05-21T00:56:50.946Z,79.02
2019-05-21T00:57:50.674Z,79.02
2019-05-21T00:58:51.096Z,78.93
2019-05-21T00:59:50.898Z,78.83
2019-05-21T01:00:50.892Z,79.02
2019-05-21T01:01:50.880Z,78.93
2019-05-21T01:02:50.877Z,79.02
2019-05-21T01:03:50.869Z,78.93
2019-05-21T01:05:02.797Z,79.02
2019-05-21T01:05:50.870Z,78.93
2019-05-21T01:06:50.846Z,79.02
2019-05-21T01:07:50.840Z,78.93
2019-05-21T01:08:50.839Z,79.12
2019-05-21T01:09:50.824Z,79.31
2019-05-21T01:10:50.815Z,78.93
2019-05-21T01:11:50.812Z,78.93
2019-05-21T01:12:50.803Z,78.79
2019-05-21T01:13:50.791Z,79.02
2019-05-21T01:14:50.788Z,78.89
2019-05-21T01:15:50.776Z,78.99
2019-05-21T01:16:50.812Z,78.89
2019-05-21T01:17:51.652Z,78.89
2019-05-21T01:18:50.753Z,78.99
2019-05-21T01:19:50.747Z,79.27
2019-05-21T01:20:50.755Z,78.89
2019-05-21T01:21:50.737Z,79.27
2019-05-21T01:22:50.724Z,78.89
2019-05-21T01:23:50.719Z,78.99
2019-05-21T01:24:50.712Z,78.89
2019-05-21T01:25:50.700Z,79.08
2019-05-21T01:26:50.697Z,79.17
2019-05-21T01:27:50.710Z,79.27
2019-05-21T01:28:50.708Z,79.65
2019-05-21T01:29:50.673Z,79.46
2019-05-21T01:30:50.662Z,79.46
2019-05-21T01:31:50.661Z,79.27
2019-05-21T01:32:50.655Z,79.46
2019-05-21T01:33:50.643Z,79.36
2019-05-21T01:34:50.631Z,79.27
2019-05-21T01:35:50.622Z,79.27
2019-05-21T01:36:50.790Z,79.27
2019-05-21T01:37:50.613Z,79.36
2019-05-21T01:38:50.606Z,79.46
2019-05-21T01:39:50.596Z,79.46
2019-05-21T01:40:50.623Z,79.65
2019-05-21T01:41:50.613Z,79.56
2019-05-21T01:42:50.601Z,79.75
2019-05-21T01:43:50.566Z,79.43
2019-05-21T01:44:50.558Z,79.65
2019-05-21T01:45:50.617Z,79.65
2019-05-21T01:46:50.543Z,79.56
2019-05-21T01:47:50.533Z,79.52
2019-05-21T01:48:50.535Z,79.46
2019-05-21T01:49:50.515Z,79.43
2019-05-21T01:50:50.520Z,79.43
2019-05-21T01:51:50.499Z,79.43
2019-05-21T01:52:50.497Z,79.36
2019-05-21T01:53:50.486Z,79.75
2019-05-21T01:54:50.479Z,79.52
2019-05-21T01:55:50.264Z,80.09
2019-05-21T01:56:50.475Z,80.22
2019-05-21T01:57:50.450Z,80.19
2019-05-21T01:58:50.460Z,80.04
2019-05-21T01:59:50.440Z,80.13
2019-05-21T02:00:50.435Z,80.04
2019-05-21T02:01:50.419Z,79.99
2019-05-21T02:02:50.429Z,80.04
2019-05-21T02:03:50.164Z,79.52
2019-05-21T02:04:50.511Z,79.9
2019-05-21T02:05:50.416Z,79.9
2019-05-21T02:06:51.809Z,79.9
2019-05-21T02:07:50.379Z,79.8
2019-05-21T02:08:50.369Z,79.71
2019-05-21T02:09:50.358Z,79.71
2019-05-21T02:10:50.351Z,80.09
2019-05-21T02:11:50.354Z,80.09
2019-05-21T02:12:50.334Z,79.61
2019-05-21T02:13:50.330Z,79.61
2019-05-21T02:14:50.323Z,79.99
2019-05-21T02:15:50.311Z,79.99
2019-05-21T02:16:50.303Z,79.9
2019-05-21T02:17:50.368Z,79.99
2019-05-21T02:18:50.289Z,79.99
2019-05-21T02:19:50.279Z,79.99
2019-05-21T02:20:50.273Z,80.19
2019-05-21T02:21:50.271Z,80.19
2019-05-21T02:22:50.256Z,79.99
2019-05-21T02:23:50.246Z,79.99
2019-05-21T02:24:50.240Z,80.09
2019-05-21T02:25:50.232Z,80.09
2019-05-21T02:26:50.223Z,79.8
2019-05-21T02:27:50.216Z,79.8
2019-05-21T02:28:50.207Z,80.19
2019-05-21T02:29:50.200Z,79.99
2019-05-21T02:30:50.199Z,79.99
2019-05-21T02:31:50.186Z,79.9
2019-05-21T02:32:50.180Z,80.19
2019-05-21T02:33:50.179Z,80.19
2019-05-21T02:34:50.164Z,79.99
2019-05-21T02:35:56.902Z,79.8
2019-05-21T02:36:50.163Z,79.99
2019-05-21T02:38:50.131Z,79.8
2019-05-21T02:39:56.973Z,79.99
2019-05-21T02:40:50.117Z,79.8
2019-05-21T02:41:50.113Z,79.99
2019-05-21T02:42:50.096Z,79.99
2019-05-21T02:43:50.111Z,79.8
2019-05-21T02:44:53.817Z,79.99
2019-05-21T02:45:50.113Z,79.9
2019-05-21T02:46:50.070Z,79.9
2019-05-21T02:47:50.061Z,79.9
2019-05-21T02:48:50.085Z,79.9
2019-05-21T02:49:50.047Z,79.52
2019-05-21T02:50:50.056Z,79.52
2019-05-21T02:51:50.026Z,79.9
2019-05-21T02:52:50.016Z,80.09
2019-05-21T02:53:50.009Z,79.99
2019-05-21T02:54:50.001Z,79.9
2019-05-21T02:55:49.999Z,79.99
2019-05-21T02:56:49.983Z,79.8
2019-05-21T02:57:49.979Z,79.8
2019-05-21T02:58:49.971Z,79.8
2019-05-21T02:59:49.964Z,79.96
2019-05-21T03:00:49.962Z,79.8
2019-05-21T03:01:49.967Z,79.96
2019-05-21T03:02:49.707Z,80.15
2019-05-21T03:03:49.928Z,79.8
2019-05-21T03:04:49.964Z,79.96
2019-05-21T03:05:49.908Z,79.96
2019-05-21T03:06:49.902Z,80.19
2019-05-21T03:07:49.894Z,80.15
2019-05-21T03:08:49.890Z,79.86
2019-05-21T03:09:49.903Z,79.99
2019-05-21T03:10:49.870Z,79.96
2019-05-21T03:11:49.885Z,80.09
2019-05-21T03:12:49.864Z,80.19
2019-05-21T03:13:49.844Z,80.09
2019-05-21T03:14:49.835Z,79.99
2019-05-21T03:15:49.600Z,79.8
2019-05-21T03:16:49.834Z,80.57
2019-05-21T03:17:49.815Z,80.57
2019-05-21T03:18:49.812Z,80.66
2019-05-21T03:19:49.796Z,80.66
2019-05-21T03:20:49.793Z,80.38
2019-05-21T03:21:49.798Z,80.47
2019-05-21T03:22:49.773Z,80.19
2019-05-21T03:23:49.764Z,80.19
2019-05-21T03:24:49.756Z,80.57
2019-05-21T03:25:49.751Z,80.57
2019-05-21T03:26:49.737Z,80.47
2019-05-21T03:27:49.736Z,80.76
2019-05-21T03:28:49.722Z,80.66
2019-05-21T03:29:49.728Z,80.38
2019-05-21T03:30:49.709Z,80.57
2019-05-21T03:31:49.706Z,80.47
2019-05-21T03:32:49.717Z,80.38
2019-05-21T03:33:49.754Z,79.99
2019-05-21T03:34:49.535Z,80.38
2019-05-21T03:35:49.743Z,80.85
2019-05-21T03:36:49.659Z,80.38
2019-05-21T03:37:49.660Z,80.47
2019-05-21T03:38:49.643Z,80.38
2019-05-21T03:39:49.631Z,80.09
2019-05-21T03:40:49.628Z,80.38
2019-05-21T03:41:49.645Z,80.38
2019-05-21T03:42:49.620Z,80.19
2019-05-21T03:43:49.622Z,80.19
2019-05-21T03:45:01.533Z,80.7
2019-05-21T03:45:49.611Z,81.09
2019-05-21T03:46:49.589Z,80.8
2019-05-21T03:47:49.585Z,80.74
2019-05-21T03:49:02.311Z,80.46
2019-05-21T03:49:49.354Z,81.36
2019-05-21T03:50:49.562Z,80.98
2019-05-21T03:51:49.549Z,80.21
2019-05-21T03:52:49.554Z,80.11
2019-05-21T03:53:49.539Z,80.02
2019-05-21T03:54:49.533Z,80.02
2019-05-21T03:55:49.530Z,80.25
2019-05-21T03:56:49.531Z,79.77
2019-05-21T03:57:49.537Z,79.24
2019-05-21T03:58:49.505Z,79.14
2019-05-21T03:59:49.496Z,79.57
2019-05-21T04:00:49.499Z,79.66
2019-05-21T04:01:49.485Z,79.7
2019-05-21T04:02:49.479Z,79.89
2019-05-21T04:03:49.469Z,79.36
2019-05-21T04:04:49.465Z,79.3
2019-05-21T04:05:49.460Z,79.11
2019-05-21T04:06:54.748Z,79.14
2019-05-21T04:07:49.216Z,79.05
2019-05-21T04:09:49.440Z,78.8
2019-05-21T04:10:49.440Z,78.55
2019-05-21T04:11:53.017Z,78.27
2019-05-21T04:12:49.439Z,78.69
2019-05-21T04:13:49.428Z,77.67
2019-05-21T04:14:49.443Z,77.38
2019-05-21T04:15:49.436Z,76.94
2019-05-21T04:16:49.441Z,76.84
2019-05-21T04:17:49.430Z,75.49
2019-05-21T04:18:49.412Z,74.67
2019-05-21T04:19:49.411Z,74.67
2019-05-21T04:20:49.411Z,74.67
2019-05-21T04:21:49.405Z,73.46
2019-05-21T04:22:49.411Z,73.26
2019-05-21T04:23:49.407Z,74.65
2019-05-21T04:24:49.413Z,74.84
2019-05-21T04:25:49.416Z,74.65
2019-05-21T04:26:49.398Z,74.55
2019-05-21T04:27:49.402Z,74.78
2019-05-21T04:28:49.405Z,74.3
2019-05-21T04:29:49.412Z,75.36
2019-05-21T04:30:49.405Z,77.03
2019-05-21T04:31:49.400Z,76.84
2019-05-21T04:32:49.395Z,79.74
2019-05-21T04:33:49.408Z,78.38
2019-05-21T04:34:49.400Z,76.84
2019-05-21T04:35:49.398Z,77.17
2019-05-21T04:36:49.399Z,76.59
2019-05-21T04:37:49.404Z,76.3
2019-05-21T04:38:49.401Z,77.11
2019-05-21T04:39:49.455Z,79.62
2019-05-21T04:40:49.400Z,81.26
2019-05-21T04:41:49.415Z,81.84
2019-05-21T04:42:49.403Z,81.07
2019-05-21T04:43:49.408Z,78.66
2019-05-21T04:44:49.423Z,83.23
2019-05-21T04:45:49.410Z,79.72
2019-05-21T04:46:49.412Z,84.1
2019-05-21T04:47:49.490Z,79.91
2019-05-21T04:48:49.419Z,76.05
2019-05-21T04:49:49.418Z,74.35
2019-05-21T04:50:49.432Z,73.52
2019-05-21T04:51:49.427Z,72.26
2019-05-21T04:52:49.429Z,72.1
2019-05-21T04:53:49.430Z,72.14
2019-05-21T04:54:49.425Z,71.69
2019-05-21T04:55:49.434Z,71.53
2019-05-21T04:56:49.446Z,71.76
2019-05-21T04:57:49.438Z,71.22
2019-05-21T04:58:49.454Z,70.67
2019-05-21T04:59:49.445Z,70.47
2019-05-21T05:00:49.452Z,70.61
2019-05-21T05:01:49.464Z,69.67
2019-05-21T05:02:49.458Z,68.99
2019-05-21T05:03:49.219Z,68.99
2019-05-21T05:04:49.468Z,68.93
2019-05-21T05:05:49.474Z,68.83
2019-05-21T05:06:49.255Z,68.48
2019-05-21T05:07:49.490Z,68.18
2019-05-21T05:08:49.483Z,69.29
2019-05-21T05:09:49.488Z,69.38
2019-05-21T05:10:51.736Z,68.7
2019-05-21T05:11:49.499Z,68.84
2019-05-21T05:12:49.507Z,68.35
2019-05-21T05:13:49.514Z,68.44
2019-05-21T05:14:49.519Z,68.57
2019-05-21T05:15:49.524Z,67.6
2019-05-21T05:16:49.531Z,68.12
2019-05-21T05:17:49.537Z,67.44
2019-05-21T05:18:49.543Z,67.38
2019-05-21T05:19:49.553Z,68.45
2019-05-21T05:20:49.560Z,67.67
2019-05-21T05:21:49.562Z,67.12
2019-05-21T05:22:49.572Z,68.68
2019-05-21T05:23:49.657Z,68.38
2019-05-21T05:24:49.585Z,67.7
2019-05-21T05:25:49.590Z,67.74
2019-05-21T05:26:49.599Z,67.74
2019-05-21T05:27:49.608Z,67.15
2019-05-21T05:28:49.615Z,71.05
2019-05-21T05:29:49.622Z,73.91
2019-05-21T05:30:49.629Z,72.61
2019-05-21T05:31:49.667Z,69.39
2019-05-21T05:32:49.651Z,67.47
2019-05-21T05:33:49.648Z,66.99
2019-05-21T05:34:49.662Z,67.71
2019-05-21T05:35:49.668Z,69.56
2019-05-21T05:36:49.678Z,69.07
2019-05-21T05:37:51.338Z,68.59
2019-05-21T05:39:02.426Z,68.39
2019-05-21T05:39:49.701Z,67.44
2019-05-21T05:40:49.707Z,68.81
2019-05-21T05:41:49.719Z,68.81
2019-05-21T05:42:49.725Z,69.79
2019-05-21T05:43:49.742Z,67.74
2019-05-21T05:44:49.746Z,67.09
2019-05-21T05:45:49.751Z,67.19
2019-05-21T05:46:49.760Z,67.71
2019-05-21T05:47:49.771Z,67.12
2019-05-21T05:48:49.777Z,66.14
2019-05-21T05:49:49.802Z,69.11
2019-05-21T05:50:49.816Z,71.55
2019-05-21T05:51:49.803Z,72.43
2019-05-21T05:52:49.823Z,68.82
2019-05-21T05:53:49.823Z,67.35
2019-05-21T05:54:49.833Z,67.15
2019-05-21T05:55:49.843Z,68.55
2019-05-21T05:56:49.853Z,67.38
2019-05-21T05:57:49.861Z,67.12
2019-05-21T05:58:49.873Z,67.32
2019-05-21T05:59:49.878Z,66.76
2019-05-21T06:00:49.888Z,67.25
2019-05-21T06:01:49.898Z,67.25
2019-05-21T06:02:49.908Z,71.79
2019-05-21T06:03:49.968Z,73.81
2019-05-21T06:04:49.929Z,72.53
2019-05-21T06:05:49.940Z,70.09
2019-05-21T06:06:49.947Z,69.31
2019-05-21T06:07:59.583Z,68.04
2019-05-21T06:08:49.969Z,67.38
2019-05-21T06:10:49.988Z,68.07
2019-05-21T06:11:50.036Z,68.1
2019-05-21T06:12:50.037Z,67.22
2019-05-21T06:13:50.017Z,69.76
2019-05-21T06:14:50.027Z,71.62
2019-05-21T06:15:49.793Z,70.36
2019-05-21T06:16:50.204Z,70.36
2019-05-21T06:17:50.055Z,69.9
2019-05-21T06:18:50.068Z,70.19
2019-05-21T06:19:50.077Z,69.8
2019-05-21T06:20:50.102Z,70.19
2019-05-21T06:21:50.107Z,70.88
2019-05-21T06:22:50.113Z,70.68
2019-05-21T06:23:49.878Z,69.6
2019-05-21T06:24:50.133Z,70
2019-05-21T06:25:50.149Z,71.5
2019-05-21T06:26:50.150Z,71.21
2019-05-21T06:27:50.161Z,72.28
2019-05-21T06:28:50.192Z,73.07
2019-05-21T06:29:50.188Z,73.85
2019-05-21T06:30:50.205Z,73.07
2019-05-21T06:31:50.212Z,73.66
2019-05-21T06:32:50.225Z,76.01
2019-05-21T06:33:50.226Z,77.29
2019-05-21T06:34:51.244Z,81.02
2019-05-21T06:35:50.249Z,80.62
2019-05-21T06:36:50.266Z,80.82
2019-05-21T06:37:50.290Z,79.74
2019-05-21T06:38:50.297Z,80.68
2019-05-21T06:39:50.295Z,80.49
2019-05-21T06:40:50.335Z,79.94
2019-05-21T06:41:50.074Z,78.96
2019-05-21T06:42:50.350Z,81.31
2019-05-21T06:43:50.342Z,81.31
2019-05-21T06:44:50.355Z,83.51
2019-05-21T06:45:50.365Z,84.84
2019-05-21T06:46:50.398Z,84.94
2019-05-21T06:47:50.388Z,85.03
2019-05-21T06:48:50.414Z,86.41
2019-05-21T06:49:50.417Z,85.58
2019-05-21T06:50:50.428Z,86.57
2019-05-21T06:51:50.438Z,85.25
2019-05-21T06:52:50.485Z,85.54
2019-05-21T06:53:50.462Z,84.27
2019-05-21T06:54:50.476Z,83.03
2019-05-21T06:55:50.491Z,82.78
2019-05-21T06:56:52.585Z,82.43
2019-05-21T06:57:50.524Z,87.38
2019-05-21T06:58:50.538Z,83.89
2019-05-21T06:59:50.541Z,86.24
2019-05-21T07:00:50.560Z,86.99
2019-05-21T07:01:50.589Z,86.89
2019-05-21T07:02:50.584Z,87.18
2019-05-21T07:03:50.607Z,86.79
2019-05-21T07:04:50.610Z,87.13
2019-05-21T07:06:00.812Z,87.32
2019-05-21T07:06:50.651Z,86.34
2019-05-21T07:07:50.651Z,87.42
2019-05-21T07:08:50.665Z,87.03
2019-05-21T07:09:50.676Z,84.52
2019-05-21T07:10:50.692Z,85.95
2019-05-21T07:11:50.706Z,88.01
2019-05-21T07:12:50.737Z,85.06
2019-05-21T07:13:50.735Z,87.46
2019-05-21T07:14:50.761Z,86.73
2019-05-21T07:15:50.765Z,87.17
2019-05-21T08:11:51.494Z,78.84
2019-05-21T08:12:51.509Z,76.17
2019-05-21T08:13:51.530Z,76.86
2019-05-21T08:14:51.943Z,71.33
2019-05-21T08:15:51.562Z,75.58
2019-05-21T08:16:51.575Z,73.5
2019-05-21T08:17:51.583Z,70.44
2019-05-21T08:18:51.599Z,68.63
2019-05-21T08:19:51.688Z,68.24
2019-05-21T08:20:52.035Z,72.45
2019-05-21T08:21:51.651Z,73.04
2019-05-21T08:22:51.662Z,75.11
2019-05-21T08:23:51.678Z,73.43
2019-05-21T08:24:51.698Z,72.25
2019-05-21T08:25:51.707Z,72.84
2019-05-21T08:26:51.769Z,69.06
2019-05-21T08:27:51.741Z,73.4
2019-05-21T08:28:51.760Z,73.4
2019-05-21T08:29:51.768Z,64.81
2019-05-21T08:30:51.813Z,60.64
2019-05-21T08:31:51.796Z,59.53
2019-05-21T08:32:51.815Z,59.6
2019-05-21T08:33:51.843Z,61.34
2019-05-21T08:34:51.906Z,61.02
2019-05-21T08:35:51.855Z,67.08
2019-05-21T08:36:51.875Z,67.84
2019-05-21T08:37:51.885Z,67.65
2019-05-21T08:38:51.914Z,68.01
2019-05-21T08:39:51.916Z,68.46
2019-05-21T08:40:51.927Z,65.42
2019-05-21T08:41:51.943Z,66.2
2019-05-21T08:42:51.957Z,62.84
2019-05-21T08:43:51.966Z,52.92
2019-05-21T08:44:51.987Z,61.89
2019-05-21T08:45:51.992Z,61.47
2019-05-21T08:46:52.007Z,66.08
2019-05-21T08:47:52.015Z,67.9
2019-05-21T08:48:52.029Z,64.44
2019-05-21T08:49:52.051Z,67.77
2019-05-21T08:50:52.066Z,71.46
2019-05-21T08:51:52.065Z,68.68
2019-05-21T08:52:52.076Z,69.96
2019-05-21T08:53:52.094Z,66.11
2019-05-21T08:54:55.730Z,63.54
2019-05-21T08:55:52.108Z,58.65
2019-05-21T08:56:52.121Z,62.11
2019-05-21T08:58:08.016Z,64.9
2019-05-21T08:58:52.168Z,64.58
2019-05-21T08:59:52.148Z,57.85
2019-05-21T09:00:52.173Z,58.99
2019-05-21T09:01:52.159Z,61.3
2019-05-21T09:02:52.170Z,59.2
2019-05-21T09:03:51.936Z,63.29
2019-05-21T09:04:52.254Z,66.47
2019-05-21T09:05:52.188Z,69.55
2019-05-21T09:06:52.211Z,70.62
2019-05-21T09:08:52.212Z,72.08
2019-05-21T09:09:54.379Z,70.68
2019-05-21T09:10:52.246Z,71.85
2019-05-21T09:11:51.985Z,72.14
2019-05-21T09:12:52.228Z,76.03
2019-05-21T09:13:52.238Z,71.85
2019-05-21T09:14:52.265Z,76.07
2019-05-21T09:15:52.000Z,74.99
2019-05-21T09:16:52.248Z,76.45
2019-05-21T09:17:52.255Z,75.68
2019-05-21T09:18:52.255Z,72.66
2019-05-21T09:19:52.260Z,71.2
2019-05-21T09:20:52.264Z,72.96
2019-05-21T09:21:52.273Z,76.26
2019-05-21T09:22:52.275Z,76.94
2019-05-21T09:23:52.292Z,71.88
2019-05-21T09:24:52.310Z,72.37
2019-05-21T09:25:52.288Z,73.21
2019-05-21T09:26:52.289Z,74.76
2019-05-21T09:27:52.290Z,70.1
2019-05-21T09:28:52.297Z,66.31
2019-05-21T09:29:52.307Z,66.4
2019-05-21T09:30:52.320Z,70.36
2019-05-21T09:31:52.304Z,67.73
2019-05-21T09:32:52.311Z,68.99
2019-05-21T09:33:52.312Z,70.9
2019-05-21T09:34:52.333Z,68.77
2019-05-21T09:35:52.317Z,72.45
2019-05-21T09:36:52.324Z,72.94
2019-05-21T09:37:52.329Z,74.56
2019-05-21T09:38:52.348Z,77.31
2019-05-21T09:39:52.327Z,72.75
2019-05-21T09:40:52.521Z,71.39
2019-05-21T09:41:52.335Z,72.17
2019-05-21T09:42:52.338Z,70.32
2019-05-21T09:43:52.343Z,69.06
2019-05-21T09:44:52.100Z,69.74
2019-05-21T09:45:52.347Z,71.97
2019-05-21T09:46:52.361Z,71.68
2019-05-21T09:47:52.357Z,71
2019-05-21T09:48:52.352Z,72.55
2019-05-21T09:49:52.355Z,71.1
2019-05-21T09:50:52.358Z,72.55
2019-05-21T09:51:52.362Z,76.15
2019-05-21T09:52:52.361Z,72.36
2019-05-21T09:53:52.366Z,74.88
2019-05-21T09:54:52.373Z,71.97
2019-05-21T09:55:52.374Z,72.55
2019-05-21T09:56:52.129Z,74.6
2019-05-21T09:59:52.380Z,79.84
2019-05-21T10:00:52.385Z,78.58
2019-05-21T10:01:52.388Z,74.98
2019-05-21T10:02:52.393Z,66.82
2019-05-21T10:03:52.394Z,65.95
2019-05-21T10:04:52.403Z,65.47
2019-05-21T10:05:52.404Z,69.45
2019-05-21T10:06:52.405Z,69.45
2019-05-21T10:07:52.402Z,75.37
2019-05-21T10:08:52.403Z,77.02
2019-05-21T10:09:52.412Z,78.33
2019-05-21T10:10:52.407Z,76.48
2019-05-21T10:11:52.467Z,68.41
2019-05-21T10:12:52.415Z,68.25
2019-05-21T10:13:52.419Z,67.38
2019-05-21T10:14:52.427Z,67.76
2019-05-21T10:15:52.464Z,70.2
2019-05-21T10:16:52.428Z,76.9
2019-05-21T10:17:52.431Z,79.66
2019-05-21T10:18:52.440Z,78.83
2019-05-21T10:19:52.193Z,80.09
2019-05-21T10:20:52.440Z,78.87
2019-05-21T10:21:52.442Z,75.75
2019-05-21T10:22:52.463Z,73.84
2019-05-21T10:23:52.462Z,75.04
2019-05-21T10:24:52.210Z,62.08
2019-05-21T10:25:52.458Z,62.18
2019-05-21T10:26:52.461Z,60.62
2019-05-21T10:27:52.528Z,63.93
2019-05-21T10:28:52.469Z,57.6
2019-05-21T10:29:52.230Z,59.42
2019-05-21T10:30:52.484Z,61.54
2019-05-21T10:31:52.484Z,67.47
2019-05-21T10:32:52.498Z,67.83
2019-05-21T10:33:52.488Z,69.68
2019-05-21T10:34:52.251Z,63.68
2019-05-21T10:35:52.496Z,65.63
2019-05-21T10:36:52.501Z,60.46
2019-05-21T10:37:57.699Z,61.15
2019-05-21T10:38:52.533Z,63.87
2019-05-21T10:39:52.277Z,63.87
2019-05-21T10:40:52.554Z,63.87
2019-05-21T10:41:52.568Z,69.1
2019-05-21T10:42:52.541Z,66.21
2019-05-21T10:43:52.559Z,61.54
2019-05-21T10:44:52.538Z,62.02
2019-05-21T10:45:52.540Z,62.09
2019-05-21T10:46:52.555Z,58.42
2019-05-21T10:47:52.554Z,61.21
2019-05-21T10:48:52.564Z,62.35
2019-05-21T10:49:52.556Z,65.75
2019-05-21T10:50:52.565Z,62.74
2019-05-21T10:51:52.607Z,64.39
2019-05-21T10:52:52.580Z,67.31
2019-05-21T10:53:52.580Z,67.5
2019-05-21T10:54:52.331Z,62.74
2019-05-21T10:55:52.580Z,67.02
2019-05-21T10:56:52.653Z,67.41
2019-05-21T10:57:52.586Z,65.5
2019-05-21T10:58:52.596Z,64.72
2019-05-21T10:59:52.595Z,63.94
2019-05-21T11:00:52.603Z,60.17
2019-05-21T11:01:52.605Z,57.74
2019-05-21T11:02:52.842Z,54.23
2019-05-21T11:03:52.613Z,54.23
2019-05-21T11:04:52.629Z,54.43
2019-05-21T11:06:07.362Z,55.27
2019-05-21T11:06:52.622Z,54.69
2019-05-21T11:07:52.635Z,54.11
2019-05-21T11:08:52.640Z,54.4
2019-05-21T11:09:52.634Z,54.21
2019-05-21T11:10:52.700Z,55.47
2019-05-21T11:11:52.646Z,56.25
2019-05-21T11:12:52.646Z,57.9
2019-05-21T11:13:52.655Z,55.47
2019-05-21T11:14:52.667Z,53.36
2019-05-21T11:15:52.666Z,52.58
2019-05-21T11:16:52.684Z,52.06
2019-05-21T11:18:12.308Z,52.26
2019-05-21T11:18:52.673Z,53.33
2019-05-21T11:19:52.676Z,54.3
2019-05-21T11:20:52.799Z,54.23
2019-05-21T11:21:52.684Z,53.65
2019-05-21T11:22:52.694Z,53.16
2019-05-21T11:23:52.723Z,52.4
2019-05-21T11:24:52.694Z,51.73
2019-05-21T11:25:52.699Z,52.31
2019-05-21T11:26:52.706Z,52.02
2019-05-21T11:27:52.768Z,52.67
2019-05-21T11:28:52.756Z,52.77
2019-05-21T11:29:52.721Z,53.45
2019-05-21T11:30:52.813Z,53.23
2019-05-21T11:31:59.638Z,52.45
2019-05-21T11:32:52.764Z,52.36
2019-05-21T11:33:52.773Z,53.4
2019-05-21T11:34:53.127Z,55.25
2019-05-21T11:35:52.745Z,54.66
2019-05-21T11:36:52.747Z,55.13
2019-05-21T11:37:52.766Z,54.57
2019-05-21T11:38:52.751Z,54.66
2019-05-21T11:39:52.762Z,54.18
2019-05-21T11:40:53.811Z,54.18
2019-05-21T11:41:54.190Z,54.28
2019-05-21T11:42:55.418Z,54.18
2019-05-21T11:43:52.768Z,53.79
2019-05-21T11:44:52.774Z,54.28
2019-05-21T11:45:52.789Z,54.38
2019-05-21T11:46:52.780Z,53.5
2019-05-21T11:47:54.634Z,55.15
2019-05-21T11:48:52.789Z,55.18
2019-05-21T11:49:52.797Z,54.01
2019-05-21T11:50:52.798Z,52.84
2019-05-21T11:51:52.802Z,52.58
2019-05-21T11:52:52.806Z,52.75
2019-05-21T11:53:52.806Z,53.85
2019-05-21T11:54:55.685Z,53.16
2019-05-21T11:55:52.583Z,52.48
2019-05-21T11:56:52.822Z,50.82
2019-05-21T11:57:52.824Z,52.48
2019-05-21T11:58:52.825Z,54.13
2019-05-21T11:59:52.826Z,54.33
2019-05-21T12:00:52.831Z,54.03
2019-05-21T12:01:52.836Z,53.26
2019-05-21T12:02:52.856Z,54.03
2019-05-21T12:03:52.845Z,52.48
2019-05-21T12:04:52.851Z,53.94
2019-05-21T12:05:52.901Z,54.36
2019-05-21T12:06:52.902Z,52.8
2019-05-21T12:07:52.619Z,51.24
2019-05-21T12:08:59.270Z,52.02
2019-05-21T12:09:52.866Z,51.04
2019-05-21T12:10:52.872Z,50.92
2019-05-21T12:11:52.631Z,52.38
2019-05-21T12:12:52.878Z,53.26
2019-05-21T12:13:52.896Z,53.06
2019-05-21T12:14:52.888Z,51.58
2019-05-21T12:15:52.899Z,51.97
2019-05-21T12:16:52.655Z,51.97
2019-05-21T12:17:52.901Z,51.55
2019-05-21T12:18:52.946Z,51.84
2019-05-21T12:19:52.920Z,52.92
2019-05-21T12:20:52.975Z,51.55
2019-05-21T12:21:52.914Z,51.94
2019-05-21T12:22:52.934Z,51.07
2019-05-21T12:23:52.922Z,51.07
2019-05-21T12:24:52.705Z,50.78
2019-05-21T12:25:52.927Z,50.85
2019-05-21T12:26:52.713Z,51.53
2019-05-21T12:27:52.940Z,52.4
2019-05-21T12:28:52.999Z,52.89
2019-05-21T12:29:52.942Z,53.35
2019-05-21T12:30:52.945Z,54.32
2019-05-21T12:31:52.949Z,55.27
2019-05-21T12:32:52.974Z,56.52
2019-05-21T12:33:52.727Z,56.79
2019-05-21T12:34:52.966Z,57.57
2019-05-21T12:35:52.961Z,58.64
2019-05-21T12:36:52.966Z,58.31
2019-05-21T12:37:52.970Z,58.31
2019-05-21T12:38:52.969Z,58.41
2019-05-21T12:39:52.973Z,58.61
2019-05-21T12:40:52.982Z,58.58
2019-05-21T12:41:52.731Z,59.45
2019-05-21T12:42:52.978Z,59.36
2019-05-21T12:43:53.033Z,60.1
2019-05-21T12:44:52.783Z,61.75
2019-05-21T12:45:53.179Z,61.46
2019-05-21T12:46:52.737Z,60.52
2019-05-21T12:47:53.333Z,60.23
2019-05-21T12:48:52.986Z,59.45
2019-05-21T12:49:53.002Z,59.74
2019-05-21T12:50:52.998Z,61.07
2019-05-21T12:51:53.022Z,60.13
2019-05-21T12:52:53.021Z,60.91
2019-05-21T12:53:53.017Z,61.58
2019-05-21T12:54:53.048Z,61
2019-05-21T12:55:53.000Z,61.68
2019-05-21T12:56:52.760Z,61.29
2019-05-21T12:57:52.999Z,61.52
2019-05-21T12:58:53.005Z,61.91
2019-05-21T12:59:53.031Z,61.71
2019-05-21T13:00:53.032Z,59.77
2019-05-21T13:01:53.007Z,57.64
2019-05-21T13:02:53.103Z,58.8
2019-05-21T13:03:55.347Z,60.16
2019-05-21T13:04:53.019Z,58.61
2019-05-21T13:05:53.073Z,59.38
2019-05-21T13:06:52.800Z,58.51
2019-05-21T13:07:53.014Z,57.83
2019-05-21T13:08:53.045Z,58.8
2019-05-21T13:09:53.015Z,60.06
2019-05-21T13:10:53.031Z,60.55
2019-05-21T13:11:53.096Z,61.84
2019-05-21T13:12:53.186Z,60.87
2019-05-21T13:13:53.046Z,57.89
2019-05-21T13:14:52.790Z,57.79
2019-05-21T13:15:53.029Z,57.98
2019-05-21T13:16:53.114Z,58.21
2019-05-21T13:17:53.029Z,57.82
2019-05-21T13:18:53.035Z,57.56
2019-05-21T13:19:53.048Z,56.77
2019-05-21T13:20:53.035Z,55.54
2019-05-21T13:21:52.798Z,53.5
2019-05-21T13:22:53.133Z,52.06
2019-05-21T13:23:53.043Z,50.6
2019-05-21T13:24:53.064Z,50.41
2019-05-21T13:25:53.048Z,49.12
2019-05-21T13:26:53.060Z,49.22
2019-05-21T13:27:53.082Z,50.19
2019-05-21T13:28:53.066Z,51.84
2019-05-21T13:29:53.075Z,53.08
2019-05-21T13:30:53.061Z,50.97
2019-05-21T13:31:52.853Z,49.8
2019-05-21T13:32:53.074Z,51.45
2019-05-21T13:33:53.069Z,53.5
2019-05-21T13:34:53.071Z,52.72
2019-05-21T13:35:53.088Z,51.07
2019-05-21T13:36:52.835Z,50.78
2019-05-21T13:37:53.241Z,51.45
2019-05-21T13:38:53.082Z,51.97
2019-05-21T13:39:53.310Z,50.9
2019-05-21T13:40:53.127Z,51.09
2019-05-21T13:41:53.101Z,51.94
2019-05-21T13:42:53.094Z,53.79
2019-05-21T13:43:53.098Z,53.81
2019-05-21T13:44:53.109Z,51.09
2019-05-21T13:45:53.104Z,52.65
2019-05-21T13:46:52.860Z,52.26
2019-05-21T13:47:53.266Z,51.17
2019-05-21T13:48:53.116Z,52.14
2019-05-21T13:49:53.117Z,51.55
2019-05-21T13:50:53.115Z,52.43
2019-05-21T13:51:53.158Z,51.75
2019-05-21T13:52:53.076Z,52.26
2019-05-21T13:53:53.123Z,52.23
2019-05-21T13:54:53.127Z,52.45
2019-05-21T13:55:53.134Z,52.04
2019-05-21T13:56:52.888Z,51.75
2019-05-21T13:57:53.137Z,52.23